sensor_id;sensor_type;location;lat;lon;timestamp;pressure;altitude;pressure_sealevel;temperature;humidity
37792;BME280;29527;55.766;37.570;2023-12-28T00:01:55;98909.59;;;-0.28;65.33
37792;BME280;29527;55.766;37.570;2023-12-28T00:04:20;98915.56;;;-0.24;64.80
37792;BME280;29527;55.766;37.570;2023-12-28T00:06:46;98919.06;;;-0.24;65.08
37792;BME280;29527;55.766;37.570;2023-12-28T00:09:11;98915.34;;;-0.20;64.95
37792;BME280;29527;55.766;37.570;2023-12-28T00:11:37;98919.19;;;-0.27;64.48
37792;BME280;29527;55.766;37.570;2023-12-28T00:14:02;98921.69;;;-0.24;64.83
37792;BME280;29527;55.766;37.570;2023-12-28T00:16:28;98920.13;;;-0.28;64.77
37792;BME280;29527;55.766;37.570;2023-12-28T00:18:53;98919.59;;;-0.35;65.07
37792;BME280;29527;55.766;37.570;2023-12-28T00:21:19;98922.69;;;-0.26;65.13
37792;BME280;29527;55.766;37.570;2023-12-28T00:23:44;98924.22;;;-0.22;64.45
37792;BME280;29527;55.766;37.570;2023-12-28T00:26:10;98905.53;;;-0.34;65.06
37792;BME280;29527;55.766;37.570;2023-12-28T00:28:35;98923.69;;;-0.29;64.87
37792;BME280;29527;55.766;37.570;2023-12-28T00:31:01;98871.56;;;-0.56;65.16
37792;BME280;29527;55.766;37.570;2023-12-28T00:33:27;98919.34;;;-0.30;65.15
37792;BME280;29527;55.766;37.570;2023-12-28T00:35:52;98914.88;;;-0.28;64.66
37792;BME280;29527;55.766;37.570;2023-12-28T00:38:18;98926.97;;;-0.24;64.84
37792;BME280;29527;55.766;37.570;2023-12-28T00:40:43;98925.88;;;-0.20;64.92
37792;BME280;29527;55.766;37.570;2023-12-28T00:43:08;98946.00;;;-0.19;64.74
37792;BME280;29527;55.766;37.570;2023-12-28T00:45:34;98940.88;;;-0.22;65.21
37792;BME280;29527;55.766;37.570;2023-12-28T00:47:59;98905.13;;;-0.44;64.80
37792;BME280;29527;55.766;37.570;2023-12-28T00:50:25;98918.59;;;-0.32;64.86
37792;BME280;29527;55.766;37.570;2023-12-28T00:52:52;98954.03;;;-0.22;64.75
37792;BME280;29527;55.766;37.570;2023-12-28T00:55:18;98953.13;;;-0.21;65.09
37792;BME280;29527;55.766;37.570;2023-12-28T00:57:43;98936.78;;;-0.27;64.96
37792;BME280;29527;55.766;37.570;2023-12-28T01:00:09;98944.56;;;-0.26;64.90
37792;BME280;29527;55.766;37.570;2023-12-28T01:02:35;98949.84;;;-0.26;64.95
37792;BME280;29527;55.766;37.570;2023-12-28T01:05:00;98946.44;;;-0.28;65.34
37792;BME280;29527;55.766;37.570;2023-12-28T01:07:26;98951.69;;;-0.28;64.77
37792;BME280;29527;55.766;37.570;2023-12-28T01:09:51;98942.88;;;-0.27;65.32
37792;BME280;29527;55.766;37.570;2023-12-28T01:12:17;98955.81;;;-0.22;65.04
37792;BME280;29527;55.766;37.570;2023-12-28T01:14:43;98963.63;;;-0.21;65.08
37792;BME280;29527;55.766;37.570;2023-12-28T01:17:08;98964.56;;;-0.22;64.42
37792;BME280;29527;55.766;37.570;2023-12-28T01:19:34;98962.78;;;-0.21;64.89
37792;BME280;29527;55.766;37.570;2023-12-28T01:21:59;98975.00;;;-0.20;64.98
37792;BME280;29527;55.766;37.570;2023-12-28T01:24:25;98954.25;;;-0.26;65.11
37792;BME280;29527;55.766;37.570;2023-12-28T01:26:52;98961.06;;;-0.22;64.92
37792;BME280;29527;55.766;37.570;2023-12-28T01:29:17;98975.69;;;-0.17;64.93
37792;BME280;29527;55.766;37.570;2023-12-28T01:31:43;98961.94;;;-0.22;65.11
37792;BME280;29527;55.766;37.570;2023-12-28T01:34:08;98984.53;;;-0.18;64.75
37792;BME280;29527;55.766;37.570;2023-12-28T01:36:34;98974.78;;;-0.16;65.21
37792;BME280;29527;55.766;37.570;2023-12-28T01:39:00;98986.06;;;-0.13;64.94
37792;BME280;29527;55.766;37.570;2023-12-28T01:41:25;98974.69;;;-0.14;64.89
37792;BME280;29527;55.766;37.570;2023-12-28T01:43:51;98970.44;;;-0.17;64.87
37792;BME280;29527;55.766;37.570;2023-12-28T01:46:17;98966.72;;;-0.12;64.96
37792;BME280;29527;55.766;37.570;2023-12-28T01:48:45;98978.78;;;-0.08;64.85
37792;BME280;29527;55.766;37.570;2023-12-28T01:51:14;98972.59;;;-0.07;64.72
37792;BME280;29527;55.766;37.570;2023-12-28T01:53:40;98976.25;;;-0.10;64.56
37792;BME280;29527;55.766;37.570;2023-12-28T01:56:06;98987.44;;;-0.06;64.76
37792;BME280;29527;55.766;37.570;2023-12-28T01:58:33;98978.47;;;-0.02;64.89
37792;BME280;29527;55.766;37.570;2023-12-28T02:01:01;98981.34;;;-0.07;64.76
37792;BME280;29527;55.766;37.570;2023-12-28T02:03:27;98983.72;;;-0.02;64.54
37792;BME280;29527;55.766;37.570;2023-12-28T02:05:53;98988.06;;;-0.01;64.22
37792;BME280;29527;55.766;37.570;2023-12-28T02:08:19;98996.78;;;0.01;64.68
37792;BME280;29527;55.766;37.570;2023-12-28T02:10:44;99007.19;;;0.03;64.18
37792;BME280;29527;55.766;37.570;2023-12-28T02:13:10;99012.47;;;0.03;64.79
37792;BME280;29527;55.766;37.570;2023-12-28T02:15:36;99005.81;;;-0.05;64.54
37792;BME280;29527;55.766;37.570;2023-12-28T02:18:16;99020.19;;;0.06;64.75
37792;BME280;29527;55.766;37.570;2023-12-28T02:20:45;99011.38;;;0.07;64.77
37792;BME280;29527;55.766;37.570;2023-12-28T02:23:11;98951.69;;;-0.28;64.77
37792;BME280;29527;55.766;37.570;2023-12-28T02:25:36;99008.91;;;0.04;64.67
37792;BME280;29527;55.766;37.570;2023-12-28T02:28:02;99009.81;;;0.03;64.76
37792;BME280;29527;55.766;37.570;2023-12-28T02:30:28;99010.84;;;0.00;65.18
37792;BME280;29527;55.766;37.570;2023-12-28T02:35:32;99017.88;;;-0.01;65.04
37792;BME280;29527;55.766;37.570;2023-12-28T02:38:03;99023.00;;;0.03;65.16
37792;BME280;29527;55.766;37.570;2023-12-28T02:40:39;99026.34;;;0.06;65.24
37792;BME280;29527;55.766;37.570;2023-12-28T02:43:08;99028.09;;;0.06;64.81
37792;BME280;29527;55.766;37.570;2023-12-28T02:45:35;99020.44;;;0.01;64.64
37792;BME280;29527;55.766;37.570;2023-12-28T02:48:01;99019.81;;;-0.04;64.94
37792;BME280;29527;55.766;37.570;2023-12-28T02:50:26;99014.53;;;-0.04;65.11
37792;BME280;29527;55.766;37.570;2023-12-28T02:52:52;99019.03;;;-0.06;65.19
37792;BME280;29527;55.766;37.570;2023-12-28T02:55:17;99008.81;;;-0.12;65.31
37792;BME280;29527;55.766;37.570;2023-12-28T02:57:44;99016.00;;;-0.16;65.51
37792;BME280;29527;55.766;37.570;2023-12-28T03:00:10;99015.06;;;-0.15;65.19
37792;BME280;29527;55.766;37.570;2023-12-28T03:02:36;99017.81;;;-0.17;65.45
37792;BME280;29527;55.766;37.570;2023-12-28T03:05:04;99021.50;;;-0.21;65.63
37792;BME280;29527;55.766;37.570;2023-12-28T03:07:31;98982.59;;;-0.51;65.67
37792;BME280;29527;55.766;37.570;2023-12-28T03:09:57;99028.75;;;-0.26;65.33
37792;BME280;29527;55.766;37.570;2023-12-28T03:12:22;99033.91;;;-0.23;65.36
37792;BME280;29527;55.766;37.570;2023-12-28T03:14:48;99032.97;;;-0.22;65.37
37792;BME280;29527;55.766;37.570;2023-12-28T03:17:13;99025.91;;;-0.21;65.08
37792;BME280;29527;55.766;37.570;2023-12-28T03:19:39;99038.50;;;-0.28;65.39
37792;BME280;29527;55.766;37.570;2023-12-28T03:22:05;99021.09;;;-0.31;65.46
37792;BME280;29527;55.766;37.570;2023-12-28T03:24:30;99043.75;;;-0.28;65.64
37792;BME280;29527;55.766;37.570;2023-12-28T03:26:56;99053.34;;;-0.27;65.69
37792;BME280;29527;55.766;37.570;2023-12-28T03:29:21;99050.59;;;-0.24;65.51
37792;BME280;29527;55.766;37.570;2023-12-28T03:31:47;99054.00;;;-0.22;65.74
37792;BME280;29527;55.766;37.570;2023-12-28T03:34:13;99053.75;;;-0.17;65.47
37792;BME280;29527;55.766;37.570;2023-12-28T03:36:39;99047.97;;;-0.24;65.20
37792;BME280;29527;55.766;37.570;2023-12-28T03:39:04;99045.88;;;-0.17;65.47
37792;BME280;29527;55.766;37.570;2023-12-28T03:41:32;99013.75;;;-0.41;65.33
37792;BME280;29527;55.766;37.570;2023-12-28T03:43:58;99054.47;;;-0.13;65.01
37792;BME280;29527;55.766;37.570;2023-12-28T03:46:23;99052.69;;;-0.13;65.37
37792;BME280;29527;55.766;37.570;2023-12-28T03:48:49;99058.97;;;-0.16;64.85
37792;BME280;29527;55.766;37.570;2023-12-28T03:51:15;99067.78;;;-0.17;65.20
37792;BME280;29527;55.766;37.570;2023-12-28T03:53:41;99059.91;;;-0.17;65.29
37792;BME280;29527;55.766;37.570;2023-12-28T03:56:07;99059.97;;;-0.18;65.39
37792;BME280;29527;55.766;37.570;2023-12-28T03:58:32;99051.13;;;-0.17;65.14
37792;BME280;29527;55.766;37.570;2023-12-28T04:00:58;99061.50;;;-0.14;65.30
37792;BME280;29527;55.766;37.570;2023-12-28T04:03:24;99052.22;;;-0.21;65.08
37792;BME280;29527;55.766;37.570;2023-12-28T04:05:50;99055.41;;;-0.15;65.60
37792;BME280;29527;55.766;37.570;2023-12-28T04:08:16;99051.06;;;-0.16;65.42
37792;BME280;29527;55.766;37.570;2023-12-28T04:10:41;99058.97;;;-0.16;65.75
37792;BME280;29527;55.766;37.570;2023-12-28T04:13:06;99061.59;;;-0.16;65.29
37792;BME280;29527;55.766;37.570;2023-12-28T04:15:32;99072.91;;;-0.13;65.60
37792;BME280;29527;55.766;37.570;2023-12-28T04:17:57;99054.63;;;-0.17;65.16
37792;BME280;29527;55.766;37.570;2023-12-28T04:20:23;99051.59;;;-0.26;65.36
37792;BME280;29527;55.766;37.570;2023-12-28T04:22:48;99084.34;;;-0.15;64.92
37792;BME280;29527;55.766;37.570;2023-12-28T04:25:14;99083.63;;;-0.18;65.31
37792;BME280;29527;55.766;37.570;2023-12-28T04:27:42;99096.72;;;-0.17;65.48
37792;BME280;29527;55.766;37.570;2023-12-28T04:30:08;99074.50;;;-0.28;65.67
37792;BME280;29527;55.766;37.570;2023-12-28T04:32:38;99077.81;;;-0.25;65.35
37792;BME280;29527;55.766;37.570;2023-12-28T04:35:03;99082.81;;;-0.19;65.36
37792;BME280;29527;55.766;37.570;2023-12-28T04:37:29;99089.53;;;-0.13;65.49
37792;BME280;29527;55.766;37.570;2023-12-28T04:39:56;99099.00;;;-0.09;65.25
37792;BME280;29527;55.766;37.570;2023-12-28T04:42:22;99041.03;;;-0.44;65.05
37792;BME280;29527;55.766;37.570;2023-12-28T04:44:48;99093.03;;;-0.12;65.23
37792;BME280;29527;55.766;37.570;2023-12-28T04:47:13;99095.59;;;-0.11;65.04
37792;BME280;29527;55.766;37.570;2023-12-28T04:49:39;99098.13;;;-0.09;65.13
37792;BME280;29527;55.766;37.570;2023-12-28T04:52:04;99091.31;;;-0.13;65.07
37792;BME280;29527;55.766;37.570;2023-12-28T04:54:30;99093.31;;;-0.19;64.90
37792;BME280;29527;55.766;37.570;2023-12-28T04:56:55;99111.44;;;-0.12;64.71
37792;BME280;29527;55.766;37.570;2023-12-28T04:59:21;99119.13;;;-0.08;64.97
37792;BME280;29527;55.766;37.570;2023-12-28T05:01:46;99109.22;;;-0.03;64.85
37792;BME280;29527;55.766;37.570;2023-12-28T05:04:12;99106.50;;;-0.01;65.04
37792;BME280;29527;55.766;37.570;2023-12-28T05:06:37;99101.69;;;-0.10;64.79
37792;BME280;29527;55.766;37.570;2023-12-28T05:09:03;99106.94;;;-0.10;65.02
37792;BME280;29527;55.766;37.570;2023-12-28T05:11:29;99108.09;;;-0.16;64.82
37792;BME280;29527;55.766;37.570;2023-12-28T05:13:55;99086.50;;;-0.23;64.77
37792;BME280;29527;55.766;37.570;2023-12-28T05:16:21;99119.97;;;-0.07;64.55
37792;BME280;29527;55.766;37.570;2023-12-28T05:18:46;99126.16;;;-0.08;64.70
37792;BME280;29527;55.766;37.570;2023-12-28T05:21:12;99120.81;;;-0.07;64.36
37792;BME280;29527;55.766;37.570;2023-12-28T05:23:39;99115.22;;;-0.18;64.98
37792;BME280;29527;55.766;37.570;2023-12-28T05:26:04;99121.34;;;-0.18;64.22
37792;BME280;29527;55.766;37.570;2023-12-28T05:28:31;99131.16;;;-0.21;64.95
37792;BME280;29527;55.766;37.570;2023-12-28T05:30:57;99139.41;;;-0.29;64.97
37792;BME280;29527;55.766;37.570;2023-12-28T05:33:25;99135.06;;;-0.30;64.95
37792;BME280;29527;55.766;37.570;2023-12-28T05:35:51;99136.63;;;-0.26;64.92
37792;BME280;29527;55.766;37.570;2023-12-28T05:38:16;99136.50;;;-0.23;65.32
37792;BME280;29527;55.766;37.570;2023-12-28T05:40:43;99136.34;;;-0.20;64.93
37792;BME280;29527;55.766;37.570;2023-12-28T05:43:10;99145.94;;;-0.19;64.55
37792;BME280;29527;55.766;37.570;2023-12-28T05:45:36;99149.16;;;-0.12;64.67
37792;BME280;29527;55.766;37.570;2023-12-28T05:48:01;99104.88;;;-0.40;64.61
37792;BME280;29527;55.766;37.570;2023-12-28T05:50:27;99143.47;;;-0.22;64.76
37792;BME280;29527;55.766;37.570;2023-12-28T05:52:52;99149.56;;;-0.21;64.77
37792;BME280;29527;55.766;37.570;2023-12-28T05:55:18;99165.00;;;-0.13;64.52
37792;BME280;29527;55.766;37.570;2023-12-28T05:57:43;99158.31;;;-0.21;64.78
37792;BME280;29527;55.766;37.570;2023-12-28T06:00:10;99092.47;;;-0.77;64.90
37792;BME280;29527;55.766;37.570;2023-12-28T06:02:35;99182.97;;;-0.23;65.27
37792;BME280;29527;55.766;37.570;2023-12-28T06:05:01;99163.72;;;-0.24;65.02
37792;BME280;29527;55.766;37.570;2023-12-28T06:07:28;99189.59;;;-0.15;64.91
37792;BME280;29527;55.766;37.570;2023-12-28T06:09:54;99189.59;;;-0.15;64.64
37792;BME280;29527;55.766;37.570;2023-12-28T06:12:19;99193.16;;;-0.16;64.40
37792;BME280;29527;55.766;37.570;2023-12-28T06:14:45;99189.31;;;-0.08;64.54
37792;BME280;29527;55.766;37.570;2023-12-28T06:17:10;99198.69;;;-0.03;64.29
37792;BME280;29527;55.766;37.570;2023-12-28T06:19:36;99211.50;;;0.05;64.00
37792;BME280;29527;55.766;37.570;2023-12-28T06:22:01;99199.41;;;0.01;64.04
37792;BME280;29527;55.766;37.570;2023-12-28T06:24:27;99216.63;;;0.08;64.26
37792;BME280;29527;55.766;37.570;2023-12-28T06:26:52;99214.63;;;0.13;63.98
37792;BME280;29527;55.766;37.570;2023-12-28T06:29:18;99229.69;;;0.10;63.97
37792;BME280;29527;55.766;37.570;2023-12-28T06:31:43;99168.84;;;-0.21;64.00
37792;BME280;29527;55.766;37.570;2023-12-28T06:34:09;99216.31;;;0.14;63.93
37792;BME280;29527;55.766;37.570;2023-12-28T06:36:34;99230.97;;;0.20;63.08
37792;BME280;29527;55.766;37.570;2023-12-28T06:39:00;99203.31;;;-0.08;63.57
37792;BME280;29527;55.766;37.570;2023-12-28T06:41:26;99248.69;;;0.17;63.40
37792;BME280;29527;55.766;37.570;2023-12-28T06:43:52;99252.19;;;0.17;63.14
37792;BME280;29527;55.766;37.570;2023-12-28T06:46:18;99251.16;;;0.20;62.40
37792;BME280;29527;55.766;37.570;2023-12-28T06:48:44;99261.06;;;0.14;62.81
37792;BME280;29527;55.766;37.570;2023-12-28T06:51:15;99252.44;;;0.11;62.87
37792;BME280;29527;55.766;37.570;2023-12-28T06:53:41;99256.59;;;0.17;62.45
37792;BME280;29527;55.766;37.570;2023-12-28T06:56:06;99254.81;;;0.17;62.67
37792;BME280;29527;55.766;37.570;2023-12-28T06:58:32;99245.22;;;0.16;62.59
37792;BME280;29527;55.766;37.570;2023-12-28T07:00:58;99242.91;;;0.27;62.03
37792;BME280;29527;55.766;37.570;2023-12-28T07:03:24;99244.84;;;0.24;62.34
37792;BME280;29527;55.766;37.570;2023-12-28T07:05:50;99259.16;;;0.18;61.96
37792;BME280;29527;55.766;37.570;2023-12-28T07:08:16;99261.84;;;0.17;62.14
37792;BME280;29527;55.766;37.570;2023-12-28T07:10:42;99268.34;;;0.09;62.38
37792;BME280;29527;55.766;37.570;2023-12-28T07:13:07;99257.94;;;0.06;62.11
37792;BME280;29527;55.766;37.570;2023-12-28T07:15:33;99265.25;;;0.19;62.51
37792;BME280;29527;55.766;37.570;2023-12-28T07:17:59;99253.31;;;0.11;62.56
37792;BME280;29527;55.766;37.570;2023-12-28T07:20:24;99277.78;;;0.33;62.54
37792;BME280;29527;55.766;37.570;2023-12-28T07:22:50;99278.66;;;0.33;62.25
37792;BME280;29527;55.766;37.570;2023-12-28T07:25:16;99277.72;;;0.34;62.44
37792;BME280;29527;55.766;37.570;2023-12-28T07:27:41;99288.03;;;0.39;62.24
37792;BME280;29527;55.766;37.570;2023-12-28T07:30:07;99297.84;;;0.35;62.40
37792;BME280;29527;55.766;37.570;2023-12-28T07:32:33;99291.72;;;0.35;63.07
37792;BME280;29527;55.766;37.570;2023-12-28T07:34:58;99289.91;;;0.37;61.96
37792;BME280;29527;55.766;37.570;2023-12-28T07:37:24;99296.31;;;0.31;62.38
37792;BME280;29527;55.766;37.570;2023-12-28T07:39:50;99294.84;;;0.24;62.43
37792;BME280;29527;55.766;37.570;2023-12-28T07:42:15;99298.22;;;0.27;62.52
37792;BME280;29527;55.766;37.570;2023-12-28T07:44:41;99298.00;;;0.32;62.41
37792;BME280;29527;55.766;37.570;2023-12-28T07:47:06;99307.09;;;0.44;62.22
37792;BME280;29527;55.766;37.570;2023-12-28T07:49:32;99306.09;;;0.47;61.98
37792;BME280;29527;55.766;37.570;2023-12-28T07:51:58;99312.94;;;0.51;61.08
37792;BME280;29527;55.766;37.570;2023-12-28T07:54:23;99313.56;;;0.56;61.11
37792;BME280;29527;55.766;37.570;2023-12-28T07:56:49;99314.50;;;0.55;61.01
37792;BME280;29527;55.766;37.570;2023-12-28T07:59:14;99325.19;;;0.52;61.00
37792;BME280;29527;55.766;37.570;2023-12-28T08:01:40;99280.78;;;0.25;60.85
37792;BME280;29527;55.766;37.570;2023-12-28T08:04:05;99327.84;;;0.69;59.51
37792;BME280;29527;55.766;37.570;2023-12-28T08:06:31;99331.41;;;0.68;59.28
37792;BME280;29527;55.766;37.570;2023-12-28T08:08:58;99325.88;;;0.75;58.99
37792;BME280;29527;55.766;37.570;2023-12-28T08:11:27;99326.41;;;0.81;58.29
37792;BME280;29527;55.766;37.570;2023-12-28T08:13:52;99320.31;;;0.81;58.40
37792;BME280;29527;55.766;37.570;2023-12-28T08:16:18;99325.91;;;0.92;57.52
37792;BME280;29527;55.766;37.570;2023-12-28T08:18:43;99334.22;;;1.02;57.32
37792;BME280;29527;55.766;37.570;2023-12-28T08:21:09;99332.28;;;1.06;57.31
37792;BME280;29527;55.766;37.570;2023-12-28T08:23:34;99326.91;;;1.07;57.22
37792;BME280;29527;55.766;37.570;2023-12-28T08:26:00;99320.25;;;1.00;57.38
37792;BME280;29527;55.766;37.570;2023-12-28T08:28:25;99340.50;;;1.17;57.21
37792;BME280;29527;55.766;37.570;2023-12-28T08:30:51;99331.81;;;1.15;57.14
37792;BME280;29527;55.766;37.570;2023-12-28T08:33:17;99339.03;;;1.11;57.21
37792;BME280;29527;55.766;37.570;2023-12-28T08:35:42;99349.28;;;1.18;56.69
37792;BME280;29527;55.766;37.570;2023-12-28T08:38:08;99347.63;;;1.15;56.64
37792;BME280;29527;55.766;37.570;2023-12-28T08:40:34;99352.44;;;1.07;56.80
37792;BME280;29527;55.766;37.570;2023-12-28T08:42:59;99353.28;;;0.90;57.01
37792;BME280;29527;55.766;37.570;2023-12-28T08:45:25;99365.28;;;0.95;57.79
37792;BME280;29527;55.766;37.570;2023-12-28T08:47:50;99355.59;;;0.96;57.84
37792;BME280;29527;55.766;37.570;2023-12-28T08:50:16;99355.66;;;0.94;57.55
37792;BME280;29527;55.766;37.570;2023-12-28T08:52:41;99374.91;;;0.96;57.91
37792;BME280;29527;55.766;37.570;2023-12-28T08:55:07;99364.59;;;0.92;58.20
37792;BME280;29527;55.766;37.570;2023-12-28T08:57:33;99374.13;;;0.94;58.59
37792;BME280;29527;55.766;37.570;2023-12-28T08:59:58;99352.41;;;0.89;58.57
37792;BME280;29527;55.766;37.570;2023-12-28T09:02:29;99366.56;;;1.06;58.73
37792;BME280;29527;55.766;37.570;2023-12-28T09:04:54;99388.06;;;0.96;59.10
37792;BME280;29527;55.766;37.570;2023-12-28T09:07:20;99370.84;;;0.89;59.76
37792;BME280;29527;55.766;37.570;2023-12-28T09:09:46;99379.84;;;0.85;60.22
37792;BME280;29527;55.766;37.570;2023-12-28T09:12:11;99363.91;;;0.69;60.59
37792;BME280;29527;55.766;37.570;2023-12-28T09:14:37;99321.34;;;0.40;61.92
37792;BME280;29527;55.766;37.570;2023-12-28T09:17:03;99364.47;;;0.76;61.36
37792;BME280;29527;55.766;37.570;2023-12-28T09:19:28;99371.16;;;0.83;61.19
37792;BME280;29527;55.766;37.570;2023-12-28T09:21:54;99324.91;;;0.58;61.90
37792;BME280;29527;55.766;37.570;2023-12-28T09:24:19;99383.25;;;0.87;61.96
37792;BME280;29527;55.766;37.570;2023-12-28T09:26:45;99382.19;;;0.91;61.75
37792;BME280;29527;55.766;37.570;2023-12-28T09:29:11;99380.41;;;0.92;61.67
37792;BME280;29527;55.766;37.570;2023-12-28T09:31:37;99383.81;;;0.94;61.03
37792;BME280;29527;55.766;37.570;2023-12-28T09:34:03;99390.03;;;0.93;60.61
37792;BME280;29527;55.766;37.570;2023-12-28T09:36:30;99370.06;;;0.87;60.33
37792;BME280;29527;55.766;37.570;2023-12-28T09:38:56;99397.16;;;1.27;60.16
37792;BME280;29527;55.766;37.570;2023-12-28T09:41:25;99385.53;;;1.49;59.28
37792;BME280;29527;55.766;37.570;2023-12-28T09:44:00;99377.91;;;1.61;58.86
37792;BME280;29527;55.766;37.570;2023-12-28T09:46:30;99370.31;;;1.72;58.21
37792;BME280;29527;55.766;37.570;2023-12-28T09:48:58;99385.63;;;1.83;57.05
37792;BME280;29527;55.766;37.570;2023-12-28T09:51:23;99370.06;;;1.77;56.80
37792;BME280;29527;55.766;37.570;2023-12-28T09:53:51;99393.22;;;1.89;55.75
37792;BME280;29527;55.766;37.570;2023-12-28T09:56:16;99397.41;;;1.76;56.48
37792;BME280;29527;55.766;37.570;2023-12-28T09:58:42;99408.19;;;1.53;56.03
37792;BME280;29527;55.766;37.570;2023-12-28T10:01:10;99404.81;;;1.32;56.79
37792;BME280;29527;55.766;37.570;2023-12-28T10:03:35;99401.66;;;1.25;56.81
37792;BME280;29527;55.766;37.570;2023-12-28T10:06:01;99402.28;;;1.31;56.46
37792;BME280;29527;55.766;37.570;2023-12-28T10:08:27;99393.44;;;1.32;56.23
37792;BME280;29527;55.766;37.570;2023-12-28T10:10:52;99405.75;;;1.31;56.27
37792;BME280;29527;55.766;37.570;2023-12-28T10:13:20;99401.03;;;1.38;56.10
37792;BME280;29527;55.766;37.570;2023-12-28T10:15:48;99394.41;;;1.29;55.60
37792;BME280;29527;55.766;37.570;2023-12-28T10:18:17;99372.91;;;1.19;55.36
37792;BME280;29527;55.766;37.570;2023-12-28T10:20:49;99386.59;;;1.27;55.32
37792;BME280;29527;55.766;37.570;2023-12-28T10:23:14;99395.06;;;1.34;55.50
37792;BME280;29527;55.766;37.570;2023-12-28T10:25:40;99391.09;;;1.25;55.52
37792;BME280;29527;55.766;37.570;2023-12-28T10:28:06;99394.06;;;1.37;55.56
37792;BME280;29527;55.766;37.570;2023-12-28T10:30:31;99384.13;;;1.42;56.29
37792;BME280;29527;55.766;37.570;2023-12-28T10:32:58;99386.38;;;1.50;55.87
37792;BME280;29527;55.766;37.570;2023-12-28T10:35:23;99378.72;;;1.45;55.44
37792;BME280;29527;55.766;37.570;2023-12-28T10:37:52;99381.88;;;1.52;55.04
37792;BME280;29527;55.766;37.570;2023-12-28T10:40:20;99396.00;;;1.51;54.80
37792;BME280;29527;55.766;37.570;2023-12-28T10:43:01;99391.97;;;1.43;55.53
37792;BME280;29527;55.766;37.570;2023-12-28T10:45:29;99403.00;;;1.34;55.10
37792;BME280;29527;55.766;37.570;2023-12-28T10:50:30;99396.22;;;1.28;55.50
37792;BME280;29527;55.766;37.570;2023-12-28T10:53:06;99358.88;;;1.01;55.60
37792;BME280;29527;55.766;37.570;2023-12-28T10:56:03;99401.41;;;1.30;56.52
37792;BME280;29527;55.766;37.570;2023-12-28T11:01:28;99392.97;;;1.23;56.49
37792;BME280;29527;55.766;37.570;2023-12-28T11:04:12;99397.63;;;1.36;56.51
37792;BME280;29527;55.766;37.570;2023-12-28T11:06:42;99395.28;;;1.29;56.09
37792;BME280;29527;55.766;37.570;2023-12-28T11:09:09;99394.66;;;1.24;56.35
37792;BME280;29527;55.766;37.570;2023-12-28T11:11:36;99389.00;;;1.14;56.22
37792;BME280;29527;55.766;37.570;2023-12-28T11:14:03;99409.78;;;1.21;56.32
37792;BME280;29527;55.766;37.570;2023-12-28T11:16:30;99407.09;;;1.22;55.65
37792;BME280;29527;55.766;37.570;2023-12-28T11:18:56;99402.44;;;1.08;55.76
37792;BME280;29527;55.766;37.570;2023-12-28T11:21:23;99399.44;;;0.98;56.28
37792;BME280;29527;55.766;37.570;2023-12-28T11:23:49;99408.13;;;1.00;56.07
37792;BME280;29527;55.766;37.570;2023-12-28T11:26:19;99407.53;;;0.94;56.16
37792;BME280;29527;55.766;37.570;2023-12-28T11:28:45;99397.50;;;0.83;56.19
37792;BME280;29527;55.766;37.570;2023-12-28T11:31:14;99400.19;;;0.81;55.97
37792;BME280;29527;55.766;37.570;2023-12-28T11:33:47;99410.19;;;0.75;56.77
37792;BME280;29527;55.766;37.570;2023-12-28T11:36:29;99415.31;;;0.78;57.10
37792;BME280;29527;55.766;37.570;2023-12-28T11:39:02;99413.09;;;0.68;57.25
37792;BME280;29527;55.766;37.570;2023-12-28T11:41:31;99409.91;;;0.62;56.83
37792;BME280;29527;55.766;37.570;2023-12-28T11:43:56;99416.94;;;0.61;56.93
37792;BME280;29527;55.766;37.570;2023-12-28T11:46:22;99417.25;;;0.55;56.73
37792;BME280;29527;55.766;37.570;2023-12-28T11:48:47;99413.03;;;0.51;56.54
37792;BME280;29527;55.766;37.570;2023-12-28T11:51:13;99415.69;;;0.51;55.86
37792;BME280;29527;55.766;37.570;2023-12-28T11:53:40;99427.16;;;0.50;55.65
37792;BME280;29527;55.766;37.570;2023-12-28T11:56:06;99429.19;;;0.43;55.93
37792;BME280;29527;55.766;37.570;2023-12-28T11:58:35;99426.13;;;0.33;55.99
37792;BME280;29527;55.766;37.570;2023-12-28T12:01:03;99424.41;;;0.32;56.37
37792;BME280;29527;55.766;37.570;2023-12-28T12:03:29;99422.56;;;0.34;55.78
37792;BME280;29527;55.766;37.570;2023-12-28T12:05:57;99422.69;;;0.31;55.84
37792;BME280;29527;55.766;37.570;2023-12-28T12:08:23;99433.38;;;0.28;54.86
37792;BME280;29527;55.766;37.570;2023-12-28T12:10:59;99435.09;;;0.29;54.73
37792;BME280;29527;55.766;37.570;2023-12-28T12:13:25;99441.59;;;0.20;54.15
37792;BME280;29527;55.766;37.570;2023-12-28T12:15:51;99449.09;;;0.09;54.14
37792;BME280;29527;55.766;37.570;2023-12-28T12:18:17;99436.69;;;-0.08;54.47
37792;BME280;29527;55.766;37.570;2023-12-28T12:20:43;99426.69;;;-0.21;54.54
37792;BME280;29527;55.766;37.570;2023-12-28T12:23:09;99448.56;;;-0.20;54.38
37792;BME280;29527;55.766;37.570;2023-12-28T12:25:36;99444.38;;;-0.24;54.38
37792;BME280;29527;55.766;37.570;2023-12-28T12:28:01;99438.50;;;-0.31;53.69
37792;BME280;29527;55.766;37.570;2023-12-28T12:30:29;99452.66;;;-0.34;53.64
37792;BME280;29527;55.766;37.570;2023-12-28T12:32:56;99443.81;;;-0.53;53.35
37792;BME280;29527;55.766;37.570;2023-12-28T12:35:22;99450.97;;;-0.79;53.61
37792;BME280;29527;55.766;37.570;2023-12-28T12:37:48;99422.03;;;-1.02;53.38
37792;BME280;29527;55.766;37.570;2023-12-28T12:40:16;99467.72;;;-0.82;53.44
37792;BME280;29527;55.766;37.570;2023-12-28T12:42:51;99459.47;;;-0.73;53.67
37792;BME280;29527;55.766;37.570;2023-12-28T12:45:18;99467.84;;;-0.85;53.50
37792;BME280;29527;55.766;37.570;2023-12-28T12:47:43;99455.06;;;-0.94;53.73
37792;BME280;29527;55.766;37.570;2023-12-28T12:50:09;99480.06;;;-0.84;54.10
37792;BME280;29527;55.766;37.570;2023-12-28T12:52:36;99500.00;;;-0.78;53.75
37792;BME280;29527;55.766;37.570;2023-12-28T12:55:01;99497.94;;;-0.70;54.05
37792;BME280;29527;55.766;37.570;2023-12-28T12:57:29;99496.97;;;-0.67;52.83
37792;BME280;29527;55.766;37.570;2023-12-28T12:59:55;99491.56;;;-0.64;53.49